Main page
METAR-TAF:

METAR-TAF

Airports :

Zaragoza Airport

Zaragoza, Spain

latitude: 41-40N, longitude: 001-01W, elevation: 263 m

Current weather observation

The report was made 17 minutes ago, at 22:00 UTC
Wind 10 kt from the West/Southwest
Temperature 9°C
Humidity 71%
Pressure 1023 hPa
Visibility 10 km or more
no clouds below 1500 m and no cumulonimbus

METAR: LEZG 102200Z 25010KT CAVOK 09/04 Q1023

Time: 23:17 (22:17 UTC)

Forecast

The report was made 5 hours and 17 minutes ago, at 17:00 UTC
Forecast valid from 10 at 18 UTC to 11 at 18 UTC
Wind 7 kt from the West/Southwest
Visibility 10 km or more
Few clouds at a height of 3500 ft
Temporary
from 11 at 10 UTC to 11 at 14 UTC
Visibility: 4000 m
Broken clouds at a height of 3000 ft
rain
Temporary
from 11 at 13 UTC to 11 at 18 UTC
Wind 18 kt from the West/Northwest with gusts up to 30 kt

TAF: LEZG 101700Z 1018/1118 25007KT 9999 FEW035 TX10/1113Z TN04/1106Z TEMPO 1110/1114 4000 RA BKN030 TEMPO 1113/1118 30018G30KT

Weather observations and forecasts of more than 4000 airports (METAR and TAF reports).

The available stations are represented by yellow and red dots on the map.

Hover mouse over dot to see the name of the station.

Then click to see weather observations and forecasts.

To change the map : click on the green buttons with a black cross to zoom in, on the green button with a dash to zoom out, or on the green arrows for adjacent maps.


METAR-TAF: